CPX404 Details

Departure: Nashville International Airport (KBNA)
Arrival: Louis Armstrong New Orleans International Airport (KMSY)
Route: LBY MEI IGB HRTUN CHSNE2


Current Weather Information
KBNA 251053Z 18004KT 10SM FEW080 22/19 A3012 RMK AO2 SLP192 T02170189
KMSY 251131Z 08003KT 7SM SCT013 26/23 A3012 RMK AO2 T02560233